Time;durP1;ratioP1;P1;durP2;ratioP2;P2;SDS_P1;SDS_P2;PMS_P1;PMS_P2;Temp;Humidity;BMP_temperature;BMP_pressure;BME280_temperature;BME280_humidity;BME280_pressure;Samples;Min_cycle;Max_cycle;Signal;HPM_P1;HPM_P2
2023/07/31 00:00:06;;;;;;;0.88;0.73;;;15.30;99.90;;;;;;5112044;27;20038;-72
2023/07/31 00:02:31;;;;;;;0.28;0.28;;;15.20;99.90;;;;;;5093435;27;20046;-70
2023/07/31 00:04:57;;;;;;;0.70;0.20;;;15.20;99.90;;;;;;5126869;27;20035;-70
2023/07/31 00:07:23;;;;;;;0.40;0.40;;;15.20;99.90;;;;;;5096942;27;20043;-70
2023/07/31 00:09:48;;;;;;;2.60;0.35;;;15.20;99.90;;;;;;5095714;27;20046;-69
2023/07/31 00:12:14;;;;;;;0.20;0.20;;;15.20;99.90;;;;;;5131034;27;20413;-70
2023/07/31 00:14:39;;;;;;;0.60;0.60;;;15.20;99.90;;;;;;5074754;27;20118;-69
2023/07/31 00:17:05;;;;;;;0.20;0.20;;;15.20;99.90;;;;;;5097480;27;20032;-69
2023/07/31 00:19:31;;;;;;;0.30;0.25;;;15.20;99.90;;;;;;5114609;27;20075;-69
2023/07/31 00:21:56;;;;;;;0.52;0.52;;;15.20;99.90;;;;;;5130822;27;20481;-70
2023/07/31 00:24:22;;;;;;;0.10;0.10;;;15.10;99.90;;;;;;5096070;28;20122;-69
2023/07/31 00:26:47;;;;;;;0.40;0.40;;;15.10;99.90;;;;;;5094852;28;20035;-68
2023/07/31 00:29:13;;;;;;;0.75;0.57;;;15.10;99.90;;;;;;5125772;27;20071;-69
2023/07/31 00:31:38;;;;;;;2.85;0.98;;;15.10;99.90;;;;;;5094891;28;20067;-68
2023/07/31 00:34:04;;;;;;;0.52;0.20;;;15.10;99.90;;;;;;5114135;28;20075;-68
2023/07/31 00:36:30;;;;;;;0.15;0.15;;;15.10;99.90;;;;;;5093295;28;20050;-68
2023/07/31 00:38:55;;;;;;;0.10;0.10;;;15.00;99.90;;;;;;5094934;28;20042;-68
2023/07/31 00:41:21;;;;;;;0.30;0.30;;;15.10;99.90;;;;;;5102982;28;20039;-66
2023/07/31 00:43:50;;;;;;;0.10;0.10;;;15.00;99.90;;;;;;5096755;28;20386;-66
2023/07/31 00:46:15;;;;;;;0.20;0.10;;;15.00;99.90;;;;;;5098194;28;20035;-66
2023/07/31 00:48:41;;;;;;;0.70;0.32;;;15.10;99.90;;;;;;5097136;28;20375;-69
2023/07/31 00:51:08;;;;;;;1.85;0.28;;;15.00;99.90;;;;;;5113428;27;20695;-68
2023/07/31 00:53:34;;;;;;;0.20;0.20;;;15.00;99.90;;;;;;5097252;28;20047;-70
2023/07/31 00:56:00;;;;;;;0.10;0.10;;;15.00;99.90;;;;;;5102797;27;20064;-70
2023/07/31 00:58:25;;;;;;;0.10;0.10;;;15.00;99.90;;;;;;5101833;27;20039;-69
2023/07/31 01:00:51;;;;;;;0.10;0.10;;;15.00;99.90;;;;;;5133474;27;20323;-69
2023/07/31 01:03:17;;;;;;;0.10;0.10;;;15.00;99.90;;;;;;5098231;27;20039;-67
2023/07/31 01:05:52;;;;;;;0.20;0.20;;;15.10;99.90;;;;;;5100825;27;20046;-68
2023/07/31 01:08:36;;;;;;;0.10;0.10;;;15.00;99.90;;;;;;5094476;27;20043;-68
2023/07/31 01:11:27;;;;;;;0.22;0.03;;;15.00;99.90;;;;;;5114800;27;20069;-68
2023/07/31 01:13:54;;;;;;;0.10;0.10;;;15.10;99.90;;;;;;5139326;27;20039;-68
2023/07/31 01:16:19;;;;;;;1.98;0.22;;;15.00;99.90;;;;;;5095977;27;20056;-69
2023/07/31 01:18:45;;;;;;;0.30;0.10;;;15.00;99.90;;;;;;5119627;27;20032;-68
2023/07/31 01:21:29;;;;;;;0.10;0.10;;;15.00;99.90;;;;;;5115552;27;20414;-69
2023/07/31 01:24:23;;;;;;;2.30;0.47;;;15.00;99.90;;;;;;5135894;27;20042;-70
2023/07/31 01:27:17;;;;;;;0.63;0.30;;;15.10;99.90;;;;;;5134807;27;20583;-69
2023/07/31 01:29:55;;;;;;;0.10;0.10;;;15.00;99.90;;;;;;5136576;27;20398;-72
2023/07/31 01:32:22;;;;;;;0.20;0.20;;;15.00;99.90;;;;;;5098120;27;20035;-67
2023/07/31 01:34:49;;;;;;;0.10;0.10;;;15.10;99.90;;;;;;5102606;27;21485;-69
2023/07/31 01:37:15;;;;;;;0.10;0.10;;;15.10;99.90;;;;;;5140033;27;20090;-68
2023/07/31 01:39:40;;;;;;;0.20;0.15;;;15.20;99.90;;;;;;5102639;27;20122;-67
2023/07/31 01:42:07;;;;;;;0.20;0.20;;;15.10;99.90;;;;;;5098766;27;20039;-69
2023/07/31 01:44:33;;;;;;;0.10;0.10;;;15.20;99.90;;;;;;5113033;27;20413;-69
2023/07/31 01:47:00;;;;;;;0.17;0.17;;;15.10;99.90;;;;;;5096421;27;20050;-70
2023/07/31 01:49:25;;;;;;;0.10;0.10;;;15.20;99.90;;;;;;5112173;27;20051;-71
2023/07/31 01:51:51;;;;;;;1.17;0.57;;;15.10;99.90;;;;;;5100447;27;20478;-70
2023/07/31 01:54:17;;;;;;;0.20;0.20;;;15.20;99.90;;;;;;5102234;27;20074;-71
2023/07/31 01:56:42;;;;;;;0.10;0.10;;;15.10;99.90;;;;;;5117831;27;20078;-68
2023/07/31 01:59:08;;;;;;;0.13;0.13;;;15.10;99.90;;;;;;5136167;27;20027;-68
2023/07/31 02:01:33;;;;;;;0.22;0.08;;;15.20;99.90;;;;;;5130850;27;20035;-69
2023/07/31 02:03:59;;;;;;;0.00;0.00;;;15.20;99.90;;;;;;5125654;27;20040;-69
2023/07/31 02:06:25;;;;;;;0.10;0.10;;;15.20;99.90;;;;;;5099589;28;20046;-68
2023/07/31 02:08:50;;;;;;;0.00;0.00;;;15.30;99.90;;;;;;5096637;27;20046;-69
2023/07/31 02:11:16;;;;;;;0.40;0.35;;;15.30;99.90;;;;;;5100419;27;20085;-70
2023/07/31 02:13:41;;;;;;;0.08;0.08;;;15.30;99.90;;;;;;5125720;27;20146;-68
2023/07/31 02:16:07;;;;;;;0.38;0.30;;;15.30;99.90;;;;;;5092667;27;20040;-70
2023/07/31 02:18:33;;;;;;;0.10;0.10;;;15.30;99.90;;;;;;5077444;27;20501;-70
2023/07/31 02:20:58;;;;;;;0.10;0.10;;;15.30;99.90;;;;;;5100358;27;20131;-72
2023/07/31 02:23:24;;;;;;;0.10;0.10;;;15.40;99.90;;;;;;5103495;27;20064;-69
2023/07/31 02:25:49;;;;;;;0.10;0.10;;;15.30;99.90;;;;;;5103034;27;20031;-67
2023/07/31 02:28:15;;;;;;;0.10;0.10;;;15.30;99.90;;;;;;5101204;27;20481;-68
2023/07/31 02:30:45;;;;;;;0.28;0.20;;;15.40;99.90;;;;;;5100169;27;20127;-68
2023/07/31 02:33:10;;;;;;;0.10;0.10;;;15.30;99.90;;;;;;5137549;27;20122;-67
2023/07/31 02:35:36;;;;;;;0.28;0.20;;;15.40;99.90;;;;;;5102088;27;20114;-66
2023/07/31 02:38:01;;;;;;;0.00;0.00;;;15.40;99.90;;;;;;5107515;27;20032;-66
2023/07/31 02:40:27;;;;;;;0.10;0.10;;;15.40;99.90;;;;;;5107741;27;20053;-67
2023/07/31 02:42:52;;;;;;;0.10;0.10;;;15.50;99.90;;;;;;5125289;27;20078;-67
2023/07/31 02:45:18;;;;;;;0.10;0.10;;;15.50;99.90;;;;;;5111881;27;20050;-67
2023/07/31 02:47:44;;;;;;;0.10;0.10;;;15.50;99.90;;;;;;5114566;28;20478;-67
2023/07/31 02:50:10;;;;;;;0.00;0.00;;;15.40;99.90;;;;;;5135462;27;20039;-66
2023/07/31 02:52:40;;;;;;;0.65;0.43;;;15.50;99.90;;;;;;5111379;27;20075;-67
2023/07/31 02:55:06;;;;;;;1.08;0.30;;;15.40;99.90;;;;;;5135610;27;20048;-66
2023/07/31 02:57:32;;;;;;;0.03;0.03;;;15.40;99.90;;;;;;5124538;27;20035;-66
2023/07/31 03:00:01;;;;;;;0.20;0.20;;;15.50;99.90;;;;;;5103307;28;20155;-67
2023/07/31 03:02:26;;;;;;;0.52;0.20;;;15.60;99.90;;;;;;5097822;27;20042;-67
2023/07/31 03:04:52;;;;;;;0.05;0.05;;;15.60;99.90;;;;;;5127675;27;20474;-67
2023/07/31 03:07:18;;;;;;;0.10;0.10;;;15.50;99.90;;;;;;5102036;27;20039;-66
2023/07/31 03:09:51;;;;;;;0.10;0.10;;;15.60;99.90;;;;;;5106700;27;20036;-67
2023/07/31 03:12:16;;;;;;;0.10;0.10;;;15.70;99.90;;;;;;5105735;27;20031;-69
2023/07/31 03:14:44;;;;;;;0.10;0.10;;;15.70;99.90;;;;;;5133128;27;20363;-68
2023/07/31 03:17:09;;;;;;;0.10;0.10;;;15.70;99.90;;;;;;5099917;27;20035;-69
2023/07/31 03:19:35;;;;;;;0.95;0.22;;;15.70;99.90;;;;;;5102293;27;20200;-69
2023/07/31 03:22:00;;;;;;;0.20;0.20;;;15.80;99.90;;;;;;5087174;27;20038;-71
2023/07/31 03:24:27;;;;;;;0.10;0.10;;;15.80;99.90;;;;;;5103316;27;20035;-71
2023/07/31 03:26:53;;;;;;;0.15;0.15;;;15.70;99.90;;;;;;5097324;27;20044;-71
2023/07/31 03:29:19;;;;;;;0.40;0.40;;;15.80;99.90;;;;;;5094296;27;20039;-73
2023/07/31 03:31:44;;;;;;;1.05;1.05;;;15.90;99.90;;;;;;5122055;27;20048;-70
2023/07/31 03:34:10;;;;;;;0.32;0.32;;;15.80;99.90;;;;;;5116530;27;20405;-72
2023/07/31 03:36:35;;;;;;;0.20;0.20;;;16.00;99.90;;;;;;5098328;27;20039;-71
2023/07/31 03:39:01;;;;;;;0.10;0.10;;;16.00;99.90;;;;;;5103300;27;20398;-70
2023/07/31 03:41:26;;;;;;;0.20;0.15;;;16.00;99.90;;;;;;5085523;28;20082;-73
2023/07/31 03:43:52;;;;;;;0.10;0.10;;;16.00;99.90;;;;;;5101253;27;20054;-75
2023/07/31 03:46:18;;;;;;;0.30;0.30;;;16.00;99.90;;;;;;5107569;27;20034;-70
2023/07/31 03:48:43;;;;;;;0.15;0.15;;;16.00;99.90;;;;;;5097739;27;20474;-69
2023/07/31 03:51:09;;;;;;;0.20;0.20;;;16.10;99.90;;;;;;5115466;27;20051;-71
2023/07/31 03:53:34;;;;;;;0.82;0.50;;;16.00;99.90;;;;;;5095035;27;20058;-71
2023/07/31 03:56:00;;;;;;;0.05;0.05;;;16.00;99.90;;;;;;5112150;27;20031;-72
2023/07/31 03:58:25;;;;;;;0.40;0.40;;;16.10;99.90;;;;;;5104801;27;20035;-71
2023/07/31 04:00:52;;;;;;;0.20;0.10;;;16.10;99.90;;;;;;5099795;27;20043;-70
2023/07/31 04:03:18;;;;;;;0.20;0.20;;;16.20;99.90;;;;;;5093610;27;20039;-67
2023/07/31 04:05:44;;;;;;;0.63;0.63;;;16.10;99.90;;;;;;5117884;27;20051;-69
2023/07/31 04:08:11;;;;;;;0.40;0.20;;;16.10;99.90;;;;;;5097214;27;20046;-71
2023/07/31 04:10:36;;;;;;;0.10;0.10;;;16.20;99.90;;;;;;5103294;27;20393;-71
2023/07/31 04:13:02;;;;;;;0.00;0.00;;;16.10;99.90;;;;;;5099475;27;20043;-68
2023/07/31 04:15:27;;;;;;;2.95;0.80;;;16.00;99.90;;;;;;5103927;27;20039;-71
2023/07/31 04:17:53;;;;;;;1.10;0.38;;;16.20;99.90;;;;;;5131792;27;20043;-72
2023/07/31 04:20:18;;;;;;;0.20;0.20;;;16.10;99.90;;;;;;5099337;27;20466;-72
2023/07/31 04:22:44;;;;;;;2.15;1.08;;;16.20;99.90;;;;;;5103161;28;20092;-69
2023/07/31 04:25:10;;;;;;;0.10;0.10;;;16.10;99.90;;;;;;5116818;27;20533;-70
2023/07/31 04:27:36;;;;;;;0.20;0.20;;;16.10;99.90;;;;;;5098142;27;20117;-66
2023/07/31 04:30:03;;;;;;;4.93;1.27;;;16.10;99.90;;;;;;5095234;28;20059;-69
2023/07/31 04:32:29;;;;;;;0.25;0.25;;;16.20;99.90;;;;;;5098859;28;20035;-70
2023/07/31 04:34:55;;;;;;;0.30;0.30;;;16.20;99.90;;;;;;5131805;27;20641;-70
2023/07/31 04:37:20;;;;;;;0.38;0.30;;;16.20;99.90;;;;;;5103427;28;20039;-69
2023/07/31 04:39:47;;;;;;;2.38;0.40;;;16.20;99.90;;;;;;5097075;28;20032;-70
2023/07/31 04:42:12;;;;;;;0.82;0.63;;;16.10;99.90;;;;;;5129124;27;20134;-71
2023/07/31 04:44:38;;;;;;;0.50;0.40;;;16.10;99.90;;;;;;5100214;28;20114;-73
2023/07/31 04:47:04;;;;;;;0.15;0.15;;;16.20;99.90;;;;;;5102119;28;20035;-70
2023/07/31 04:49:29;;;;;;;1.08;0.65;;;16.10;99.90;;;;;;5106254;28;20525;-71
2023/07/31 04:51:56;;;;;;;1.55;0.47;;;16.20;99.90;;;;;;5106450;28;20038;-70
2023/07/31 04:54:21;;;;;;;0.63;0.60;;;16.00;99.90;;;;;;5092277;28;20035;-71
2023/07/31 04:56:47;;;;;;;0.45;0.45;;;16.20;99.90;;;;;;5122150;28;20036;-70
2023/07/31 04:59:13;;;;;;;3.08;0.50;;;16.20;99.90;;;;;;5107319;28;20371;-67
2023/07/31 05:01:38;;;;;;;1.33;0.45;;;16.20;99.90;;;;;;5104100;28;20039;-69
2023/07/31 05:04:04;;;;;;;0.57;0.47;;;16.10;99.90;;;;;;5134332;27;20039;-68
2023/07/31 05:06:30;;;;;;;0.93;0.90;;;16.10;99.90;;;;;;5096596;28;20166;-70
2023/07/31 05:08:55;;;;;;;1.17;0.52;;;16.20;99.90;;;;;;5130952;27;20367;-69
2023/07/31 05:11:21;;;;;;;0.98;0.32;;;16.00;99.90;;;;;;5098823;28;20036;-70
2023/07/31 05:13:46;;;;;;;2.97;1.05;;;16.20;99.90;;;;;;5122722;28;20023;-69
2023/07/31 05:16:12;;;;;;;0.77;0.60;;;16.20;99.90;;;;;;5105766;28;20477;-69
2023/07/31 05:18:37;;;;;;;1.05;0.65;;;16.20;99.90;;;;;;5139313;27;20027;-69
2023/07/31 05:21:03;;;;;;;1.13;1.00;;;16.20;99.90;;;;;;5101676;28;20035;-68
2023/07/31 05:23:31;;;;;;;1.38;0.65;;;16.20;99.90;;;;;;5123059;27;20036;-68
2023/07/31 05:26:03;;;;;;;2.05;0.90;;;16.30;99.90;;;;;;5099966;28;20032;-68
2023/07/31 05:28:29;;;;;;;;;;;16.20;99.90;;;;;;5118997;27;20122;-67
2023/07/31 05:30:59;;;;;;;0.45;0.20;;;16.30;99.90;;;;;;5137234;27;21347;-67
2023/07/31 05:33:25;;;;;;;1.70;1.60;;;16.20;99.90;;;;;;5096359;28;20062;-67
2023/07/31 05:35:50;;;;;;;3.70;1.17;;;16.10;99.90;;;;;;5100162;28;20039;-72
2023/07/31 05:38:18;;;;;;;1.13;0.88;;;16.30;99.90;;;;;;5116823;28;20394;-69
2023/07/31 05:40:44;;;;;;;5.25;1.25;;;16.10;99.90;;;;;;5095512;28;20071;-66
2023/07/31 05:43:09;;;;;;;3.35;1.98;;;16.20;99.90;;;;;;5139385;27;20066;-70
2023/07/31 05:45:36;;;;;;;1.55;1.00;;;16.20;99.90;;;;;;5103685;27;20044;-69
2023/07/31 05:48:02;;;;;;;1.52;0.98;;;16.20;99.90;;;;;;5103939;27;20042;-69
2023/07/31 05:50:28;;;;;;;2.72;1.58;;;16.10;99.90;;;;;;5103523;27;20055;-68
2023/07/31 05:52:54;;;;;;;0.45;0.45;;;16.30;99.90;;;;;;5109382;27;20398;-69
2023/07/31 05:55:20;;;;;;;1.33;0.52;;;16.30;99.90;;;;;;5104184;27;20031;-68
2023/07/31 05:57:46;;;;;;;1.25;1.15;;;16.10;99.90;;;;;;5086873;27;20084;-68
2023/07/31 06:00:13;;;;;;;1.20;1.10;;;16.30;99.90;;;;;;5102714;27;20051;-68
2023/07/31 06:02:39;;;;;;;2.33;0.85;;;16.30;99.90;;;;;;5104495;27;20078;-69
2023/07/31 06:05:08;;;;;;;1.05;0.95;;;16.20;99.90;;;;;;5106366;27;20066;-69
2023/07/31 06:07:34;;;;;;;1.27;0.52;;;16.20;99.90;;;;;;5135468;27;20031;-69
2023/07/31 06:10:05;;;;;;;0.60;0.60;;;16.30;99.90;;;;;;5088597;27;20054;-67
2023/07/31 06:12:35;;;;;;;1.27;1.05;;;16.40;99.90;;;;;;5104722;27;20118;-68
2023/07/31 06:15:01;;;;;;;0.80;0.50;;;16.30;99.90;;;;;;5108626;27;20039;-68
2023/07/31 06:17:27;;;;;;;0.50;0.50;;;16.30;99.90;;;;;;5104645;27;20036;-69
2023/07/31 06:19:53;;;;;;;1.30;1.13;;;16.30;99.90;;;;;;5103929;27;20046;-66
2023/07/31 06:22:19;;;;;;;0.43;0.35;;;16.30;99.90;;;;;;5106853;27;20070;-68
2023/07/31 06:24:46;;;;;;;1.05;1.05;;;16.30;99.90;;;;;;5106059;27;20491;-68
2023/07/31 06:27:11;;;;;;;0.17;0.17;;;16.20;99.90;;;;;;5105774;27;20039;-70
2023/07/31 06:29:37;;;;;;;0.25;0.25;;;16.20;99.90;;;;;;5105837;27;20538;-67
2023/07/31 06:32:03;;;;;;;0.43;0.43;;;16.20;99.90;;;;;;5097444;27;20214;-67
2023/07/31 06:34:29;;;;;;;2.20;1.42;;;16.20;99.90;;;;;;5105008;27;20079;-67
2023/07/31 06:36:56;;;;;;;0.95;0.43;;;16.20;99.90;;;;;;5106012;27;20039;-68
2023/07/31 06:39:22;;;;;;;1.17;0.30;;;16.20;99.90;;;;;;5102404;27;20031;-68
2023/07/31 06:41:48;;;;;;;2.97;0.82;;;16.20;99.90;;;;;;5102342;27;20124;-68
2023/07/31 06:44:14;;;;;;;2.80;0.80;;;16.20;99.90;;;;;;5110810;27;20142;-69
2023/07/31 06:46:40;;;;;;;1.42;0.38;;;16.20;99.90;;;;;;5108255;27;20035;-68
2023/07/31 06:49:06;;;;;;;0.70;0.30;;;16.20;99.90;;;;;;5106370;27;20050;-67
2023/07/31 06:51:32;;;;;;;0.10;0.10;;;16.10;99.90;;;;;;5104477;27;20504;-68
2023/07/31 06:53:58;;;;;;;1.23;0.20;;;16.30;99.90;;;;;;5109939;27;20135;-66
2023/07/31 06:56:23;;;;;;;0.22;0.22;;;16.20;99.90;;;;;;5112975;27;20565;-69
2023/07/31 06:58:49;;;;;;;0.75;0.75;;;16.20;99.90;;;;;;5103491;27;20170;-71
2023/07/31 07:01:15;;;;;;;1.27;0.75;;;16.20;99.90;;;;;;5133591;27;20031;-70
2023/07/31 07:03:40;;;;;;;9.43;2.28;;;16.30;99.90;;;;;;5113272;27;20142;-67
2023/07/31 07:06:06;;;;;;;1.10;0.55;;;16.30;99.90;;;;;;5111069;28;20558;-67
2023/07/31 07:08:32;;;;;;;0.68;0.45;;;16.40;99.90;;;;;;5127909;27;20040;-67
2023/07/31 07:10:58;;;;;;;0.22;0.22;;;16.40;99.90;;;;;;5129998;27;20040;-67
2023/07/31 07:13:23;;;;;;;0.75;0.75;;;16.50;99.90;;;;;;5101509;28;20445;-66
2023/07/31 07:15:51;;;;;;;0.35;0.35;;;16.50;99.90;;;;;;5094951;28;20047;-67
2023/07/31 07:18:18;;;;;;;4.25;0.60;;;16.50;99.90;;;;;;5104733;27;20027;-68
2023/07/31 07:20:49;;;;;;;1.45;0.45;;;16.40;99.90;;;;;;5114686;27;20394;-69
2023/07/31 07:23:15;;;;;;;0.68;0.32;;;16.40;99.90;;;;;;5107000;27;20039;-70
2023/07/31 07:25:41;;;;;;;0.00;0.00;;;16.40;99.90;;;;;;5119252;27;20047;-69
2023/07/31 07:28:07;;;;;;;0.20;0.20;;;16.50;99.90;;;;;;5096302;28;20385;-69
2023/07/31 07:30:32;;;;;;;1.05;0.30;;;16.50;99.90;;;;;;5109995;27;20036;-68
2023/07/31 07:32:58;;;;;;;0.28;0.28;;;16.50;99.90;;;;;;5133969;27;20132;-70
2023/07/31 07:35:24;;;;;;;1.88;0.75;;;16.50;99.90;;;;;;5112691;27;20293;-68
2023/07/31 07:37:50;;;;;;;0.10;0.10;;;16.60;99.90;;;;;;5113773;27;20039;-67
2023/07/31 07:40:16;;;;;;;0.10;0.10;;;16.60;99.90;;;;;;5100708;28;20050;-68
2023/07/31 07:42:41;;;;;;;0.10;0.10;;;16.70;99.90;;;;;;5094224;28;20027;-69
2023/07/31 07:45:07;;;;;;;0.22;0.10;;;16.70;99.90;;;;;;5093866;28;20543;-67
2023/07/31 07:47:33;;;;;;;0.00;0.00;;;16.60;99.90;;;;;;5097119;28;20031;-69
2023/07/31 07:49:59;;;;;;;0.25;0.13;;;16.60;99.90;;;;;;5110441;27;20504;-68
2023/07/31 07:52:24;;;;;;;0.20;0.20;;;16.50;99.90;;;;;;5110723;27;20100;-70
2023/07/31 07:54:50;;;;;;;0.55;0.10;;;16.60;99.90;;;;;;5111122;27;20114;-70
2023/07/31 07:57:15;;;;;;;0.17;0.17;;;16.50;99.90;;;;;;5110785;28;20078;-69
2023/07/31 07:59:42;;;;;;;0.40;0.40;;;16.50;99.90;;;;;;5092816;28;20035;-68
2023/07/31 08:02:07;;;;;;;0.10;0.10;;;16.50;99.90;;;;;;5092593;28;20044;-69
2023/07/31 08:04:33;;;;;;;0.00;0.00;;;16.70;99.90;;;;;;5127772;27;20103;-69
2023/07/31 08:06:58;;;;;;;1.08;0.60;;;16.70;99.90;;;;;;5110427;27;20129;-68
2023/07/31 08:09:24;;;;;;;0.20;0.20;;;16.70;99.90;;;;;;5092108;27;20130;-67
2023/07/31 08:11:50;;;;;;;0.30;0.30;;;16.80;99.90;;;;;;5107004;28;20047;-68
2023/07/31 08:14:15;;;;;;;0.15;0.15;;;16.90;99.90;;;;;;5126785;27;20325;-68
2023/07/31 08:16:41;;;;;;;0.50;0.50;;;16.80;99.90;;;;;;5126961;27;20043;-68
2023/07/31 08:19:06;;;;;;;0.00;0.00;;;16.90;99.90;;;;;;5110680;27;20047;-68
2023/07/31 08:21:32;;;;;;;0.13;0.13;;;16.90;99.90;;;;;;5095356;28;20062;-69
2023/07/31 08:23:57;;;;;;;0.20;0.15;;;16.90;99.90;;;;;;5111855;28;20083;-71
2023/07/31 08:26:23;;;;;;;0.80;0.30;;;16.90;99.90;;;;;;5102219;28;20042;-72
2023/07/31 08:28:49;;;;;;;0.40;0.38;;;17.00;99.90;;;;;;5092527;28;20084;-70
2023/07/31 08:31:14;;;;;;;0.40;0.20;;;17.00;99.90;;;;;;5094829;28;20104;-72
2023/07/31 08:33:40;;;;;;;1.08;1.02;;;17.00;99.90;;;;;;5116568;28;20047;-71
2023/07/31 08:36:06;;;;;;;0.30;0.30;;;17.10;99.90;;;;;;5142184;27;20027;-70
2023/07/31 08:38:32;;;;;;;0.25;0.17;;;17.20;99.90;;;;;;5097697;28;20397;-69
2023/07/31 08:40:58;;;;;;;0.10;0.10;;;17.20;99.90;;;;;;5091535;28;20027;-70
2023/07/31 08:43:27;;;;;;;0.00;0.00;;;17.20;99.90;;;;;;5092592;28;20212;-68
2023/07/31 08:45:53;;;;;;;2.17;0.38;;;17.20;99.90;;;;;;5104233;28;20072;-69
2023/07/31 08:48:21;;;;;;;0.45;0.32;;;17.20;99.90;;;;;;5114724;28;20062;-69
2023/07/31 08:50:46;;;;;;;0.10;0.10;;;17.30;99.90;;;;;;5096346;28;20050;-70
2023/07/31 08:53:12;;;;;;;0.15;0.15;;;17.40;99.90;;;;;;5101642;28;20035;-70
2023/07/31 08:55:38;;;;;;;0.10;0.10;;;17.20;99.90;;;;;;5108847;28;20123;-70
2023/07/31 08:58:04;;;;;;;0.17;0.17;;;17.30;99.90;;;;;;5095902;28;20080;-70
2023/07/31 09:00:32;;;;;;;0.03;0.03;;;17.30;99.90;;;;;;5106058;28;20031;-69
2023/07/31 09:03:02;;;;;;;0.10;0.10;;;17.30;99.90;;;;;;5110114;28;20485;-71
2023/07/31 09:05:30;;;;;;;0.30;0.30;;;17.30;99.90;;;;;;5101381;28;20050;-68
2023/07/31 09:07:57;;;;;;;0.00;0.00;;;17.30;99.90;;;;;;5099614;28;20060;-70
2023/07/31 09:10:22;;;;;;;0.30;0.30;;;17.40;99.90;;;;;;5110878;28;20043;-69
2023/07/31 09:12:51;;;;;;;0.28;0.28;;;17.30;99.90;;;;;;5109160;28;20046;-70
2023/07/31 09:15:17;;;;;;;0.10;0.10;;;17.30;99.90;;;;;;5100430;28;20519;-69
2023/07/31 09:17:42;;;;;;;0.10;0.10;;;17.40;99.90;;;;;;5105265;27;20031;-69
2023/07/31 09:20:21;;;;;;;0.08;0.08;;;17.30;99.90;;;;;;5102459;27;20050;-68
2023/07/31 09:22:49;;;;;;;0.10;0.10;;;17.50;99.90;;;;;;5096058;28;20080;-69
2023/07/31 09:25:27;;;;;;;0.00;0.00;;;17.60;99.90;;;;;;5109587;27;20420;-70
2023/07/31 09:28:04;;;;;;;0.00;0.00;;;17.80;99.90;;;;;;5106878;27;20035;-69
2023/07/31 09:30:29;;;;;;;0.10;0.10;;;17.80;99.90;;;;;;5112078;27;20027;-68
2023/07/31 09:33:08;;;;;;;0.10;0.10;;;17.90;99.90;;;;;;5111877;27;20035;-71
2023/07/31 09:35:35;;;;;;;0.30;0.30;;;17.70;99.90;;;;;;5114392;27;20082;-70
2023/07/31 09:38:06;;;;;;;0.10;0.10;;;17.70;99.90;;;;;;5106451;27;20044;-71
2023/07/31 09:40:37;;;;;;;0.10;0.10;;;17.70;99.90;;;;;;5101217;27;20043;-67
2023/07/31 09:43:05;;;;;;;0.00;0.00;;;17.70;99.90;;;;;;5144866;27;20070;-71
2023/07/31 09:45:38;;;;;;;0.20;0.20;;;17.80;99.90;;;;;;5102561;27;20062;-68
2023/07/31 09:48:11;;;;;;;0.10;0.10;;;17.80;99.90;;;;;;5109475;27;20046;-69
2023/07/31 09:50:38;;;;;;;0.00;0.00;;;17.90;99.90;;;;;;5107968;27;20698;-68
2023/07/31 09:53:04;;;;;;;0.10;0.10;;;18.00;99.90;;;;;;5114086;27;20039;-67
2023/07/31 09:55:31;;;;;;;0.10;0.10;;;18.00;99.90;;;;;;5103566;27;20066;-70
2023/07/31 09:57:57;;;;;;;0.43;0.28;;;18.10;99.90;;;;;;5111654;27;20082;-67
2023/07/31 10:00:25;;;;;;;0.10;0.10;;;18.20;99.90;;;;;;5098625;27;20083;-68
2023/07/31 10:02:51;;;;;;;0.15;0.15;;;18.20;99.90;;;;;;5105401;28;20529;-67
2023/07/31 10:05:17;;;;;;;0.10;0.10;;;18.20;99.90;;;;;;5107202;27;20083;-70
2023/07/31 10:07:51;;;;;;;0.00;0.00;;;18.30;99.90;;;;;;5122657;27;20248;-68
2023/07/31 10:10:20;;;;;;;0.10;0.10;;;18.30;99.90;;;;;;5102941;27;20043;-71
2023/07/31 10:12:47;;;;;;;0.20;0.20;;;18.40;99.90;;;;;;5103694;27;20038;-69
2023/07/31 10:15:14;;;;;;;0.00;0.00;;;18.40;99.90;;;;;;5114910;27;20110;-70
2023/07/31 10:17:40;;;;;;;0.00;0.00;;;18.40;99.90;;;;;;5111781;27;20387;-69
2023/07/31 10:20:08;;;;;;;0.15;0.15;;;18.30;99.90;;;;;;5104543;27;20039;-69
2023/07/31 10:22:34;;;;;;;0.10;0.10;;;18.30;99.90;;;;;;5105404;27;20038;-70
2023/07/31 10:25:02;;;;;;;0.10;0.10;;;18.20;99.90;;;;;;5107864;27;20046;-67
2023/07/31 10:27:28;;;;;;;0.70;0.50;;;18.20;99.90;;;;;;5099933;28;20508;-68
2023/07/31 10:29:58;;;;;;;0.00;0.00;;;18.30;99.90;;;;;;5101907;27;20031;-68
2023/07/31 10:32:25;;;;;;;0.15;0.15;;;18.30;99.90;;;;;;5102897;27;21343;-69
2023/07/31 10:34:51;;;;;;;0.22;0.20;;;18.30;99.90;;;;;;5100963;27;20055;-69
2023/07/31 10:37:27;;;;;;;1.58;0.17;;;18.30;99.90;;;;;;5104335;27;20038;-68
2023/07/31 10:40:01;;;;;;;0.10;0.10;;;18.30;99.90;;;;;;5133348;27;20474;-68
2023/07/31 10:42:38;;;;;;;0.10;0.10;;;18.20;99.90;;;;;;5102182;27;20347;-68
2023/07/31 10:45:11;;;;;;;0.13;0.13;;;18.30;99.90;;;;;;5104024;27;20059;-69
2023/07/31 10:47:46;;;;;;;0.10;0.10;;;18.30;99.90;;;;;;5103575;27;20097;-68
2023/07/31 10:50:12;;;;;;;0.10;0.10;;;18.30;99.90;;;;;;5099989;27;20053;-69
2023/07/31 10:52:37;;;;;;;0.15;0.15;;;18.30;99.90;;;;;;5118037;27;20051;-69
2023/07/31 10:55:22;;;;;;;0.10;0.05;;;18.30;99.90;;;;;;5080872;27;20072;-68
2023/07/31 10:57:48;;;;;;;0.10;0.10;;;18.40;99.90;;;;;;5096807;27;20040;-70
2023/07/31 11:00:30;;;;;;;0.35;0.35;;;18.50;99.90;;;;;;5100680;27;20027;-71
2023/07/31 11:03:04;;;;;;;0.10;0.10;;;18.50;99.90;;;;;;5102945;27;20038;-69
2023/07/31 11:05:50;;;;;;;0.10;0.10;;;18.50;99.90;;;;;;5101949;27;20712;-68
2023/07/31 11:08:26;;;;;;;0.10;0.10;;;18.60;99.90;;;;;;5103262;27;20119;-69
2023/07/31 11:11:06;;;;;;;0.20;0.20;;;18.50;99.90;;;;;;5098932;27;20039;-70
2023/07/31 11:13:52;;;;;;;0.10;0.10;;;18.60;99.90;;;;;;5135352;27;20495;-70
2023/07/31 11:16:25;;;;;;;0.10;0.10;;;18.60;99.90;;;;;;5103629;27;20066;-69
2023/07/31 11:18:52;;;;;;;0.10;0.10;;;18.50;99.90;;;;;;5110643;27;20035;-70
2023/07/31 11:21:19;;;;;;;0.63;0.63;;;18.50;99.90;;;;;;5098045;27;20031;-72
2023/07/31 11:23:53;;;;;;;0.10;0.10;;;18.60;99.90;;;;;;5102972;27;20035;-68
2023/07/31 11:26:19;;;;;;;0.20;0.20;;;18.70;99.90;;;;;;5105456;27;20546;-70
2023/07/31 11:28:49;;;;;;;0.28;0.28;;;18.80;99.90;;;;;;5101022;27;20043;-71
2023/07/31 11:31:15;;;;;;;1.35;0.50;;;19.10;99.90;;;;;;5105882;27;20473;-72
2023/07/31 11:33:41;;;;;;;0.20;0.20;;;19.40;99.90;;;;;;5104486;27;21401;-72
2023/07/31 11:36:15;;;;;;;0.63;0.63;;;19.40;99.90;;;;;;5087655;27;20035;-69
2023/07/31 11:38:40;;;;;;;0.22;0.22;;;19.40;99.90;;;;;;5100066;27;20617;-71
2023/07/31 11:41:06;;;;;;;0.10;0.10;;;19.40;99.90;;;;;;5105394;27;20040;-70
2023/07/31 11:43:32;;;;;;;0.10;0.10;;;19.10;99.90;;;;;;5105728;27;20079;-70
2023/07/31 11:46:02;;;;;;;0.10;0.10;;;19.10;99.90;;;;;;5099135;27;20047;-71
2023/07/31 11:48:34;;;;;;;0.30;0.30;;;19.00;99.90;;;;;;5098615;27;20039;-71
2023/07/31 11:51:01;;;;;;;;;;;19.00;99.90;;;;;;5104801;27;20093;-69
2023/07/31 11:53:34;;;;;;;0.10;0.10;;;18.90;99.90;;;;;;5130517;27;19916;-69
2023/07/31 11:56:01;;;;;;;0.28;0.28;;;18.80;99.90;;;;;;5100167;27;20278;-72
2023/07/31 11:58:28;;;;;;;0.13;0.10;;;18.60;99.90;;;;;;5102230;27;20039;-72
2023/07/31 12:00:55;;;;;;;0.08;0.08;;;18.40;99.90;;;;;;5123989;27;20378;-70
2023/07/31 12:03:21;;;;;;;0.93;0.10;;;18.40;99.90;;;;;;5108816;27;20057;-72
2023/07/31 12:05:50;;;;;;;0.20;0.20;;;18.30;99.90;;;;;;5101320;27;20047;-72
2023/07/31 12:08:16;;;;;;;0.00;0.00;;;18.30;99.90;;;;;;5107032;27;20060;-72
2023/07/31 12:10:41;;;;;;;0.10;0.10;;;18.30;99.90;;;;;;5106828;27;20043;-72
2023/07/31 12:13:14;;;;;;;0.43;0.43;;;18.30;99.90;;;;;;5102129;27;20039;-70
2023/07/31 12:15:44;;;;;;;0.00;0.00;;;18.50;99.90;;;;;;5105075;27;20126;-66
2023/07/31 12:18:12;;;;;;;0.00;0.00;;;18.70;99.90;;;;;;5105128;27;20032;-73
2023/07/31 12:20:46;;;;;;;0.40;0.40;;;18.70;99.90;;;;;;5109566;27;20039;-73
2023/07/31 12:23:16;;;;;;;0.20;0.20;;;18.90;99.90;;;;;;5100310;28;20130;-72
2023/07/31 12:25:42;;;;;;;0.70;0.65;;;19.10;99.90;;;;;;5102666;27;20035;-69
2023/07/31 12:28:11;;;;;;;0.43;0.43;;;19.20;99.90;;;;;;5107294;27;20517;-70
2023/07/31 12:30:38;;;;;;;1.35;0.90;;;19.30;99.90;;;;;;5107013;27;20393;-69
2023/07/31 12:33:14;;;;;;;0.28;0.28;;;19.30;99.90;;;;;;5106321;28;20639;-72
2023/07/31 12:35:47;;;;;;;0.10;0.10;;;19.50;99.90;;;;;;5101308;28;20038;-71
2023/07/31 12:38:13;;;;;;;0.80;0.75;;;19.70;99.90;;;;;;5107706;28;20100;-70
2023/07/31 12:40:40;;;;;;;1.10;0.22;;;20.00;99.90;;;;;;5107598;28;20039;-71
2023/07/31 12:43:07;;;;;;;0.40;0.35;;;20.00;99.90;;;;;;5108870;28;20099;-73
2023/07/31 12:45:33;;;;;;;0.52;0.32;;;19.90;99.90;;;;;;5102852;28;20031;-68
2023/07/31 12:48:00;;;;;;;1.50;0.60;;;19.80;99.90;;;;;;5109336;28;20636;-72